Time;durP1;ratioP1;P1;durP2;ratioP2;P2;SDS_P1;SDS_P2;PMS_P1;PMS_P2;Temp;Humidity;BMP_temperature;BMP_pressure;BME280_temperature;BME280_humidity;BME280_pressure;Samples;Min_cycle;Max_cycle;Signal;HPM_P1;HPM_P2
2023/09/18 00:00:52;;;;;;;10.48;4.95;;;21.20;99.90;;;;;;4992007;28;20413;-47
2023/09/18 00:03:24;;;;;;;18.13;6.03;;;21.20;99.90;;;;;;4991879;28;20478;-47
2023/09/18 00:05:51;;;;;;;10.55;5.90;;;21.20;99.90;;;;;;4991702;28;20100;-49
2023/09/18 00:08:17;;;;;;;11.45;5.47;;;21.20;99.90;;;;;;4991927;28;20022;-47
2023/09/18 00:10:47;;;;;;;13.63;5.30;;;21.10;99.90;;;;;;4992434;28;20077;-49
2023/09/18 00:13:12;;;;;;;7.90;6.35;;;21.10;99.90;;;;;;4991763;28;20127;-49
2023/09/18 00:15:40;;;;;;;8.70;5.50;;;21.00;99.90;;;;;;4991741;28;20069;-50
2023/09/18 00:18:06;;;;;;;8.02;5.10;;;21.00;99.90;;;;;;4993910;28;20030;-46
2023/09/18 00:20:32;;;;;;;14.48;5.38;;;21.00;99.90;;;;;;4994243;28;20022;-46
2023/09/18 00:22:57;;;;;;;9.18;5.47;;;21.00;99.90;;;;;;4995477;28;20445;-46
2023/09/18 00:25:23;;;;;;;14.98;6.53;;;20.90;99.90;;;;;;4994926;28;20023;-50
2023/09/18 00:27:49;;;;;;;10.23;5.97;;;20.90;99.90;;;;;;4995553;28;20053;-49
2023/09/18 00:30:15;;;;;;;10.65;6.03;;;20.90;99.90;;;;;;4995425;28;20102;-48
2023/09/18 00:32:40;;;;;;;12.80;5.43;;;20.90;99.90;;;;;;4993995;28;20130;-49
2023/09/18 00:35:06;;;;;;;8.80;5.00;;;21.00;99.90;;;;;;4995066;28;20022;-49
2023/09/18 00:37:32;;;;;;;8.90;4.97;;;21.00;99.90;;;;;;4995300;28;20022;-47
2023/09/18 00:39:57;;;;;;;8.70;5.60;;;21.00;99.90;;;;;;4995333;28;20418;-51
2023/09/18 00:42:24;;;;;;;9.07;5.38;;;21.00;99.90;;;;;;4995112;28;20030;-47
2023/09/18 00:44:50;;;;;;;8.35;6.05;;;21.00;99.90;;;;;;4994961;28;20054;-51
2023/09/18 00:47:16;;;;;;;10.82;6.00;;;21.00;99.90;;;;;;4995097;28;20093;-48
2023/09/18 00:49:45;;;;;;;10.40;5.22;;;21.10;99.90;;;;;;4995118;28;20022;-48
2023/09/18 00:52:11;;;;;;;8.32;5.47;;;21.00;99.90;;;;;;4994844;28;20026;-49
2023/09/18 00:54:38;;;;;;;11.32;5.95;;;21.00;99.90;;;;;;4994948;28;20367;-46
2023/09/18 00:57:05;;;;;;;11.63;5.28;;;21.00;99.90;;;;;;4993466;28;20030;-47
2023/09/18 00:59:31;;;;;;;8.65;5.18;;;21.00;99.90;;;;;;4994905;28;20121;-50
2023/09/18 01:01:56;;;;;;;14.25;6.45;;;20.90;99.90;;;;;;4995313;28;20114;-47
2023/09/18 01:04:25;;;;;;;11.40;6.35;;;20.90;99.90;;;;;;4994722;28;20533;-50
2023/09/18 01:06:51;;;;;;;9.77;5.88;;;20.80;99.90;;;;;;4994581;28;20018;-46
2023/09/18 01:09:18;;;;;;;12.75;5.65;;;20.80;99.90;;;;;;4994880;28;20133;-48
2023/09/18 01:11:49;;;;;;;15.57;5.78;;;20.80;99.90;;;;;;4994626;28;20055;-47
2023/09/18 01:14:40;;;;;;;10.48;5.63;;;20.70;99.90;;;;;;4993216;28;20022;-46
2023/09/18 01:17:10;;;;;;;9.38;5.38;;;20.60;99.90;;;;;;4994364;28;20117;-47
2023/09/18 01:19:47;;;;;;;12.15;5.57;;;20.60;99.90;;;;;;4993400;28;20062;-50
2023/09/18 01:22:17;;;;;;;6.40;4.90;;;20.60;99.90;;;;;;4994567;28;20037;-50
2023/09/18 01:24:45;;;;;;;9.48;5.13;;;20.60;99.90;;;;;;4994593;28;20077;-49
2023/09/18 01:27:16;;;;;;;8.82;5.03;;;20.50;99.90;;;;;;4992804;28;20023;-49
2023/09/18 01:29:42;;;;;;;9.65;4.75;;;20.50;99.90;;;;;;4993985;28;20054;-49
2023/09/18 01:32:08;;;;;;;8.00;5.57;;;20.50;99.90;;;;;;4994434;28;20023;-47
2023/09/18 01:34:42;;;;;;;11.73;5.40;;;20.60;99.90;;;;;;4994276;28;20029;-52
2023/09/18 01:37:12;;;;;;;7.80;5.57;;;20.60;99.90;;;;;;4994340;28;20084;-48
2023/09/18 01:39:39;;;;;;;7.93;4.95;;;20.60;99.90;;;;;;4994150;28;20042;-48
2023/09/18 01:42:06;;;;;;;4.97;4.47;;;20.60;99.90;;;;;;4992981;28;20022;-50
2023/09/18 01:44:33;;;;;;;9.82;4.90;;;20.50;99.90;;;;;;4994048;28;20137;-49
2023/09/18 01:47:02;;;;;;;9.95;5.38;;;20.60;99.90;;;;;;4994065;28;20077;-49
2023/09/18 01:49:32;;;;;;;9.27;4.68;;;20.60;99.90;;;;;;4994196;28;20272;-51
2023/09/18 01:51:58;;;;;;;11.57;5.57;;;20.60;99.90;;;;;;4994216;28;20438;-49
2023/09/18 01:54:24;;;;;;;9.45;5.63;;;20.60;99.90;;;;;;4993714;28;20087;-48
2023/09/18 01:56:50;;;;;;;8.45;5.47;;;20.70;99.90;;;;;;4993233;28;20027;-46
2023/09/18 01:59:16;;;;;;;6.68;4.78;;;20.70;99.90;;;;;;4992761;28;20037;-47
2023/09/18 02:01:42;;;;;;;10.95;5.93;;;20.60;99.90;;;;;;4993510;28;20121;-49
2023/09/18 02:04:07;;;;;;;12.27;6.40;;;20.60;99.90;;;;;;4993520;28;20097;-48
2023/09/18 02:06:33;;;;;;;12.98;5.60;;;20.50;99.90;;;;;;4991282;28;20053;-54
2023/09/18 02:08:58;;;;;;;11.35;5.75;;;20.70;99.90;;;;;;4991844;28;20037;-49
2023/09/18 02:11:24;;;;;;;14.00;6.10;;;20.30;99.90;;;;;;4993574;28;20033;-49
2023/09/18 02:13:50;;;;;;;17.02;9.18;;;20.20;99.90;;;;;;4992675;28;20526;-47
2023/09/18 02:16:15;;;;;;;10.70;5.90;;;20.20;99.90;;;;;;4992607;28;20070;-51
2023/09/18 02:18:41;;;;;;;13.43;7.50;;;20.20;99.90;;;;;;4993810;28;20081;-48
2023/09/18 02:21:06;;;;;;;10.40;6.38;;;20.10;99.90;;;;;;4993263;28;20097;-51
2023/09/18 02:23:32;;;;;;;14.68;5.97;;;20.10;99.90;;;;;;4993185;28;20129;-49
2023/09/18 02:25:59;;;;;;;14.13;6.70;;;20.00;99.90;;;;;;4992842;28;20030;-51
2023/09/18 02:28:25;;;;;;;10.40;6.28;;;20.10;99.90;;;;;;4993282;28;20023;-47
2023/09/18 02:30:51;;;;;;;9.95;5.68;;;20.00;99.90;;;;;;4993151;28;20101;-51
2023/09/18 02:33:16;;;;;;;11.57;6.40;;;20.10;99.90;;;;;;4992938;28;20114;-49
2023/09/18 02:35:45;;;;;;;9.27;5.57;;;20.10;99.90;;;;;;4992861;28;20033;-48
2023/09/18 02:38:10;;;;;;;9.40;5.55;;;20.10;99.90;;;;;;4993252;28;20022;-48
2023/09/18 02:40:36;;;;;;;10.13;5.72;;;20.20;99.90;;;;;;4992397;28;20026;-49
2023/09/18 02:43:02;;;;;;;13.82;5.63;;;20.20;99.90;;;;;;4992636;28;20466;-47
2023/09/18 02:45:27;;;;;;;13.70;5.35;;;20.20;99.90;;;;;;4993051;28;20469;-51
2023/09/18 02:47:53;;;;;;;10.55;5.72;;;20.20;99.90;;;;;;4992837;28;20524;-49
2023/09/18 02:50:19;;;;;;;9.40;5.30;;;20.20;99.90;;;;;;4991461;28;20030;-51
2023/09/18 02:52:44;;;;;;;7.65;5.22;;;20.20;99.90;;;;;;4992798;28;20038;-48
2023/09/18 02:55:10;;;;;;;11.02;5.63;;;20.20;99.90;;;;;;4991215;28;20026;-47
2023/09/18 02:57:35;;;;;;;10.50;5.40;;;20.20;99.90;;;;;;4993035;28;20030;-48
2023/09/18 03:00:01;;;;;;;13.65;6.50;;;20.10;99.90;;;;;;4993091;28;20030;-49
2023/09/18 03:02:27;;;;;;;16.90;5.60;;;20.10;99.90;;;;;;4992300;28;20452;-49
2023/09/18 03:04:53;;;;;;;8.82;5.18;;;20.10;99.90;;;;;;4992253;28;20026;-51
2023/09/18 03:07:18;;;;;;;13.10;5.25;;;20.10;99.90;;;;;;4992669;28;20026;-51
2023/09/18 03:09:43;;;;;;;11.48;5.00;;;20.00;99.90;;;;;;4992617;28;20027;-50
2023/09/18 03:12:09;;;;;;;12.32;5.95;;;20.10;99.90;;;;;;4991390;28;20080;-48
2023/09/18 03:14:34;;;;;;;6.97;4.60;;;20.10;99.90;;;;;;4992409;28;20516;-48
2023/09/18 03:17:00;;;;;;;7.18;4.53;;;20.10;99.90;;;;;;4992257;28;20030;-50
2023/09/18 03:19:26;;;;;;;7.60;5.15;;;20.00;99.90;;;;;;4992320;28;20026;-53
2023/09/18 03:21:52;;;;;;;9.45;5.65;;;20.00;99.90;;;;;;4991042;28;20379;-50
2023/09/18 03:24:18;;;;;;;10.55;5.55;;;20.00;99.90;;;;;;4992145;28;20029;-49
2023/09/18 03:26:44;;;;;;;13.20;4.85;;;20.00;99.90;;;;;;4991947;28;20393;-50
2023/09/18 03:29:10;;;;;;;10.38;5.38;;;20.10;99.90;;;;;;4992125;28;20029;-48
2023/09/18 03:31:35;;;;;;;8.65;4.63;;;20.00;99.90;;;;;;4992065;28;20049;-50
2023/09/18 03:34:01;;;;;;;7.93;4.97;;;20.00;99.90;;;;;;4992067;28;20134;-50
2023/09/18 03:36:26;;;;;;;13.23;5.30;;;20.10;99.90;;;;;;4991870;28;20026;-48
2023/09/18 03:38:52;;;;;;;5.70;4.45;;;20.10;99.90;;;;;;4992173;28;20026;-49
2023/09/18 03:41:17;;;;;;;9.35;4.75;;;20.10;99.90;;;;;;4991902;28;20026;-49
2023/09/18 03:43:43;;;;;;;8.70;4.75;;;20.10;99.90;;;;;;4991979;28;20026;-50
2023/09/18 03:46:08;;;;;;;15.95;4.57;;;20.20;99.90;;;;;;4991730;28;20106;-50
2023/09/18 03:48:37;;;;;;;8.60;4.57;;;20.20;99.90;;;;;;4991902;28;20537;-49
2023/09/18 03:51:09;;;;;;;12.05;5.32;;;20.20;99.90;;;;;;4990940;28;20097;-48
2023/09/18 03:53:35;;;;;;;7.25;4.28;;;20.20;99.90;;;;;;4994994;28;20026;-49
2023/09/18 03:56:01;;;;;;;8.38;3.90;;;20.10;99.90;;;;;;4995772;28;20149;-49
2023/09/18 03:58:26;;;;;;;8.57;4.53;;;20.20;99.90;;;;;;4995844;28;20022;-50
2023/09/18 04:00:52;;;;;;;9.82;4.57;;;20.10;99.90;;;;;;4995742;28;20038;-47
2023/09/18 04:03:18;;;;;;;16.95;4.82;;;20.10;99.90;;;;;;4995722;28;20122;-46
2023/09/18 04:05:44;;;;;;;11.07;4.53;;;20.10;99.90;;;;;;4995712;28;20069;-49
2023/09/18 04:08:10;;;;;;;11.05;4.88;;;20.10;99.90;;;;;;4995783;28;20023;-48
2023/09/18 04:10:36;;;;;;;11.70;5.05;;;20.10;99.90;;;;;;4995894;28;20026;-47
2023/09/18 04:13:01;;;;;;;9.52;5.07;;;20.10;99.90;;;;;;4995621;28;20029;-50
2023/09/18 04:15:27;;;;;;;9.77;5.45;;;20.10;99.90;;;;;;4995345;28;20023;-50
2023/09/18 04:17:53;;;;;;;7.03;4.53;;;20.10;99.90;;;;;;4994371;28;20027;-47
2023/09/18 04:20:19;;;;;;;15.65;5.10;;;20.10;99.90;;;;;;4995644;28;20049;-48
2023/09/18 04:22:49;;;;;;;13.57;5.72;;;20.00;99.90;;;;;;4995699;28;20038;-48
2023/09/18 04:25:15;;;;;;;14.25;5.13;;;20.00;99.90;;;;;;4995045;28;20026;-51
2023/09/18 04:27:40;;;;;;;14.18;6.25;;;19.90;99.90;;;;;;4995544;28;20069;-47
2023/09/18 04:30:09;;;;;;;12.55;5.07;;;19.90;99.90;;;;;;4995418;28;20043;-50
2023/09/18 04:32:37;;;;;;;8.27;4.57;;;19.90;99.90;;;;;;4995235;28;20080;-51
2023/09/18 04:35:05;;;;;;;11.38;5.18;;;19.80;99.90;;;;;;4995060;28;20038;-47
2023/09/18 04:37:30;;;;;;;11.25;4.47;;;19.90;99.90;;;;;;4993979;28;20037;-47
2023/09/18 04:39:57;;;;;;;11.25;4.85;;;19.90;99.90;;;;;;4995216;28;20027;-50
2023/09/18 04:42:23;;;;;;;11.50;4.65;;;19.90;99.90;;;;;;4995311;28;20030;-51
2023/09/18 04:44:48;;;;;;;13.27;4.90;;;19.90;99.90;;;;;;4995073;28;20145;-53
2023/09/18 04:47:14;;;;;;;8.32;4.45;;;19.90;99.90;;;;;;4995086;28;20060;-49
2023/09/18 04:49:40;;;;;;;16.05;4.53;;;19.90;99.90;;;;;;4995001;28;20022;-48
2023/09/18 04:52:06;;;;;;;9.20;5.05;;;19.90;99.90;;;;;;4994796;28;20033;-48
2023/09/18 04:54:31;;;;;;;9.85;5.30;;;20.00;99.90;;;;;;4994998;28;20477;-47
2023/09/18 04:56:57;;;;;;;9.40;4.68;;;20.00;99.90;;;;;;4994527;28;20058;-50
2023/09/18 04:59:22;;;;;;;13.10;5.05;;;20.10;99.90;;;;;;4994683;28;20045;-47
2023/09/18 05:01:48;;;;;;;6.72;4.20;;;20.00;99.90;;;;;;4994683;28;20035;-47
2023/09/18 05:04:14;;;;;;;15.35;5.03;;;20.10;99.90;;;;;;4993587;28;20061;-49
2023/09/18 05:06:40;;;;;;;12.93;4.28;;;20.00;99.90;;;;;;4994426;28;20397;-47
2023/09/18 05:09:06;;;;;;;6.68;3.92;;;20.00;99.90;;;;;;4994802;28;20034;-47
2023/09/18 05:11:31;;;;;;;11.30;4.43;;;20.10;99.90;;;;;;4994529;28;20442;-51
2023/09/18 05:13:57;;;;;;;10.75;4.20;;;20.10;99.90;;;;;;4994323;28;20026;-47
2023/09/18 05:16:22;;;;;;;10.95;3.85;;;20.10;99.90;;;;;;4994211;28;20035;-48
2023/09/18 05:18:48;;;;;;;7.60;3.45;;;20.10;99.90;;;;;;4994524;28;20429;-51
2023/09/18 05:21:13;;;;;;;11.68;4.68;;;20.10;99.90;;;;;;4994123;28;20168;-47
2023/09/18 05:23:39;;;;;;;12.23;4.13;;;20.10;99.90;;;;;;4994411;28;20390;-48
2023/09/18 05:26:04;;;;;;;11.23;4.32;;;20.10;99.90;;;;;;4992457;28;20023;-51
2023/09/18 05:28:30;;;;;;;8.60;4.38;;;20.10;99.90;;;;;;4994316;28;20471;-49
2023/09/18 05:30:55;;;;;;;8.07;4.50;;;20.10;99.90;;;;;;4994247;28;20062;-50
2023/09/18 05:33:21;;;;;;;11.32;4.32;;;20.10;99.90;;;;;;4994263;28;20049;-47
2023/09/18 05:35:46;;;;;;;16.55;4.70;;;20.10;99.90;;;;;;4993645;28;20115;-48
2023/09/18 05:38:13;;;;;;;9.23;4.10;;;20.10;99.90;;;;;;4992868;28;20478;-49
2023/09/18 05:40:40;;;;;;;8.15;4.18;;;20.10;99.90;;;;;;4993926;28;20030;-50
2023/09/18 05:43:05;;;;;;;12.30;4.30;;;20.10;99.90;;;;;;4994033;28;20030;-51
2023/09/18 05:45:32;;;;;;;12.20;4.07;;;20.00;99.90;;;;;;4993739;28;20097;-51
2023/09/18 05:48:03;;;;;;;14.20;4.40;;;20.00;99.90;;;;;;4993950;28;20030;-49
2023/09/18 05:50:31;;;;;;;13.95;3.83;;;20.00;99.90;;;;;;4993846;28;20113;-49
2023/09/18 05:53:00;;;;;;;17.50;5.25;;;20.00;99.90;;;;;;4993986;28;20026;-48
2023/09/18 05:55:26;;;;;;;15.90;4.90;;;20.00;99.90;;;;;;4993369;28;20432;-47
2023/09/18 05:57:52;;;;;;;17.98;4.38;;;20.00;99.90;;;;;;4993756;28;20026;-49
2023/09/18 06:00:17;;;;;;;16.33;4.47;;;20.00;99.90;;;;;;4992527;28;20026;-49
2023/09/18 06:02:45;;;;;;;15.98;4.35;;;20.00;99.90;;;;;;4993332;28;20490;-47
2023/09/18 06:05:11;;;;;;;15.80;3.60;;;20.10;99.90;;;;;;4992160;28;20109;-49
2023/09/18 06:07:37;;;;;;;16.27;3.83;;;20.10;99.90;;;;;;4993818;28;20098;-48
2023/09/18 06:10:03;;;;;;;13.20;4.65;;;20.20;99.90;;;;;;4993644;28;20019;-47
2023/09/18 06:12:29;;;;;;;20.83;5.57;;;20.20;99.90;;;;;;4993407;28;20030;-48
2023/09/18 06:14:55;;;;;;;19.48;4.90;;;20.20;99.90;;;;;;4993099;28;20077;-47
2023/09/18 06:17:21;;;;;;;16.42;5.03;;;20.20;99.90;;;;;;4993419;28;20512;-48
2023/09/18 06:19:46;;;;;;;12.80;4.32;;;20.20;99.90;;;;;;4993382;28;20030;-49
2023/09/18 06:22:13;;;;;;;16.95;4.47;;;20.20;99.90;;;;;;4993326;28;20031;-50
2023/09/18 06:24:39;;;;;;;13.13;4.22;;;20.20;99.90;;;;;;4993148;28;20041;-50
2023/09/18 06:27:04;;;;;;;19.10;5.82;;;20.20;99.90;;;;;;4992687;28;20052;-48
2023/09/18 06:29:31;;;;;;;13.40;4.72;;;20.10;99.90;;;;;;4993187;28;20023;-50
2023/09/18 06:31:57;;;;;;;17.58;5.10;;;20.20;99.90;;;;;;4993373;28;20030;-48
2023/09/18 06:34:23;;;;;;;11.68;4.28;;;20.10;99.90;;;;;;4993082;28;20045;-50
2023/09/18 06:36:49;;;;;;;14.07;4.60;;;20.10;99.90;;;;;;4992920;28;20402;-49
2023/09/18 06:39:15;;;;;;;13.55;3.72;;;20.00;99.90;;;;;;4991838;28;20053;-49
2023/09/18 06:41:40;;;;;;;12.55;4.38;;;20.00;99.90;;;;;;4992744;28;20546;-50
2023/09/18 06:44:06;;;;;;;17.33;5.40;;;20.00;99.90;;;;;;4992647;28;20028;-50
2023/09/18 06:46:31;;;;;;;20.05;5.20;;;20.00;99.90;;;;;;4993124;28;20093;-47
2023/09/18 06:48:57;;;;;;;17.20;5.22;;;20.10;99.90;;;;;;4992876;28;20119;-49
2023/09/18 06:51:27;;;;;;;20.42;5.57;;;20.10;99.90;;;;;;4992855;28;20526;-48
2023/09/18 06:53:53;;;;;;;17.60;4.45;;;20.10;99.90;;;;;;4992674;28;20081;-51
2023/09/18 06:56:20;;;;;;;16.85;4.38;;;20.20;99.90;;;;;;4992405;28;20093;-51
2023/09/18 06:58:47;;;;;;;13.40;3.92;;;20.30;99.90;;;;;;4991376;28;20031;-49
2023/09/18 07:01:15;;;;;;;9.70;3.60;;;20.30;99.90;;;;;;4992952;28;20510;-49
2023/09/18 07:03:40;;;;;;;15.70;3.80;;;20.30;99.90;;;;;;4992690;28;20031;-50
2023/09/18 07:06:06;;;;;;;14.95;4.53;;;20.40;99.90;;;;;;4992397;28;20536;-49
2023/09/18 07:08:32;;;;;;;15.65;4.32;;;20.40;99.90;;;;;;4992541;28;20022;-47
2023/09/18 07:10:58;;;;;;;8.52;3.55;;;20.40;99.90;;;;;;4992391;28;20018;-48
2023/09/18 07:13:23;;;;;;;8.95;3.10;;;20.40;99.90;;;;;;4992620;28;20474;-49
2023/09/18 07:15:49;;;;;;;13.10;4.13;;;20.40;99.90;;;;;;4992323;28;20034;-48
2023/09/18 07:18:14;;;;;;;13.27;3.40;;;20.40;99.90;;;;;;4992486;28;20181;-50
2023/09/18 07:20:41;;;;;;;15.30;3.38;;;20.40;99.90;;;;;;4992245;28;20593;-50
2023/09/18 07:23:07;;;;;;;13.75;4.30;;;20.40;99.90;;;;;;4992283;28;20088;-48
2023/09/18 07:25:32;;;;;;;13.73;3.83;;;20.50;99.90;;;;;;4991682;28;20018;-48
2023/09/18 07:27:58;;;;;;;12.77;3.80;;;20.50;99.90;;;;;;4991959;28;20037;-51
2023/09/18 07:30:26;;;;;;;15.23;4.53;;;20.50;99.90;;;;;;4992586;28;20037;-49
2023/09/18 07:32:58;;;;;;;13.80;3.95;;;20.50;99.90;;;;;;4992180;28;20022;-49
2023/09/18 07:35:24;;;;;;;10.68;3.80;;;20.50;99.90;;;;;;4991852;28;20032;-47
2023/09/18 07:37:50;;;;;;;12.70;4.00;;;20.50;99.90;;;;;;4992169;28;20459;-49
2023/09/18 07:40:16;;;;;;;12.27;4.22;;;20.60;99.90;;;;;;4992050;28;20117;-50
2023/09/18 07:42:43;;;;;;;19.83;4.05;;;20.60;99.90;;;;;;4992006;28;20037;-51
2023/09/18 07:45:09;;;;;;;16.95;4.57;;;20.60;99.90;;;;;;4991853;28;20019;-48
2023/09/18 07:47:35;;;;;;;11.73;5.03;;;20.60;99.90;;;;;;4992180;28;20073;-52
2023/09/18 07:50:01;;;;;;;21.25;4.63;;;20.70;99.90;;;;;;4992114;28;20053;-51
2023/09/18 07:52:26;;;;;;;13.95;4.40;;;20.70;99.90;;;;;;4992101;28;20035;-47
2023/09/18 07:54:52;;;;;;;10.73;3.67;;;20.80;99.90;;;;;;4991759;28;20026;-49
2023/09/18 07:57:18;;;;;;;18.02;5.10;;;20.80;99.90;;;;;;4992051;28;20038;-47
2023/09/18 07:59:44;;;;;;;13.98;3.80;;;20.90;99.90;;;;;;4992067;28;20110;-48
2023/09/18 08:02:09;;;;;;;13.40;4.18;;;21.00;99.90;;;;;;4991649;28;20057;-52
2023/09/18 08:04:35;;;;;;;13.88;4.45;;;21.10;99.90;;;;;;4991882;28;20058;-53
2023/09/18 08:07:01;;;;;;;12.55;3.70;;;21.20;99.90;;;;;;4991859;28;20054;-50
2023/09/18 08:09:29;;;;;;;14.50;3.08;;;21.20;99.90;;;;;;4992151;28;20379;-48
2023/09/18 08:11:55;;;;;;;17.58;3.85;;;21.30;99.90;;;;;;4992114;28;20038;-49
2023/09/18 08:14:21;;;;;;;13.98;3.55;;;21.30;99.90;;;;;;4992108;28;20474;-50
2023/09/18 08:16:47;;;;;;;11.95;3.83;;;21.30;99.90;;;;;;4991983;28;20378;-48
2023/09/18 08:19:16;;;;;;;15.95;3.53;;;21.40;99.90;;;;;;4992079;28;20029;-47
2023/09/18 08:21:42;;;;;;;9.27;4.13;;;21.40;99.90;;;;;;4991808;28;20018;-50
2023/09/18 08:24:08;;;;;;;22.45;5.55;;;21.60;99.90;;;;;;4991723;28;20026;-48
2023/09/18 08:26:33;;;;;;;14.55;3.10;;;21.50;99.90;;;;;;4991557;28;20085;-49
2023/09/18 08:28:59;;;;;;;5.90;2.45;;;21.60;99.90;;;;;;4990620;28;20494;-49
2023/09/18 08:31:24;;;;;;;13.38;3.47;;;21.60;99.90;;;;;;4991976;28;20026;-51
2023/09/18 08:33:50;;;;;;;13.40;2.95;;;21.70;99.90;;;;;;4991664;28;20051;-52
2023/09/18 08:36:16;;;;;;;12.25;3.55;;;21.70;99.90;;;;;;4991697;28;20023;-51
2023/09/18 08:38:43;;;;;;;9.98;3.13;;;21.80;99.90;;;;;;4991806;28;20089;-50
2023/09/18 08:41:11;;;;;;;19.35;3.88;;;21.80;99.90;;;;;;4994990;28;20069;-50
2023/09/18 08:43:39;;;;;;;10.20;2.70;;;21.90;99.90;;;;;;4995112;28;20022;-48
2023/09/18 08:46:05;;;;;;;12.27;3.58;;;22.00;99.90;;;;;;4994775;28;20045;-48
2023/09/18 08:48:34;;;;;;;7.70;2.50;;;22.10;99.90;;;;;;4995065;28;20113;-47
2023/09/18 08:51:05;;;;;;;10.07;3.58;;;22.10;99.90;;;;;;4994871;28;20030;-49
2023/09/18 08:53:32;;;;;;;10.23;3.05;;;22.10;99.90;;;;;;4995037;28;20030;-51
2023/09/18 08:56:01;;;;;;;9.45;2.95;;;22.10;99.90;;;;;;4994788;28;20049;-51
2023/09/18 08:58:31;;;;;;;10.50;2.78;;;22.00;99.90;;;;;;4994827;28;20031;-49
2023/09/18 09:00:57;;;;;;;12.23;3.25;;;22.10;99.90;;;;;;4993438;28;20117;-48
2023/09/18 09:03:23;;;;;;;13.18;3.00;;;22.10;99.90;;;;;;4994824;28;20102;-48
2023/09/18 09:05:48;;;;;;;12.20;2.80;;;22.10;99.90;;;;;;4994480;28;20022;-45
2023/09/18 09:08:15;;;;;;;6.97;2.88;;;22.00;99.90;;;;;;4994708;28;20081;-52
2023/09/18 09:10:40;;;;;;;17.38;4.30;;;22.10;99.90;;;;;;4994548;28;20050;-54
2023/09/18 09:13:06;;;;;;;16.05;3.17;;;22.10;99.90;;;;;;4994434;28;20406;-50
2023/09/18 09:15:47;;;;;;;9.07;2.58;;;22.20;99.90;;;;;;4994444;28;20500;-49
2023/09/18 09:18:15;;;;;;;9.65;2.30;;;22.20;99.90;;;;;;4994538;28;20026;-48
2023/09/18 09:20:41;;;;;;;12.10;2.97;;;22.20;99.90;;;;;;4994374;28;20034;-49
2023/09/18 09:23:09;;;;;;;8.32;2.58;;;22.20;99.90;;;;;;4994295;28;20030;-49
2023/09/18 09:25:36;;;;;;;7.63;2.15;;;22.30;99.90;;;;;;4993900;28;20106;-50
2023/09/18 09:28:07;;;;;;;9.30;3.25;;;22.40;99.90;;;;;;4993293;28;20026;-50
2023/09/18 09:30:35;;;;;;;6.82;2.40;;;22.30;99.90;;;;;;4994596;28;20549;-49
2023/09/18 09:33:04;;;;;;;7.50;2.00;;;22.30;99.90;;;;;;4994440;28;20033;-48
2023/09/18 09:35:33;;;;;;;9.52;2.17;;;22.30;99.90;;;;;;4992882;28;20022;-50
2023/09/18 09:38:01;;;;;;;7.57;3.75;;;22.30;99.90;;;;;;4994576;28;20060;-50
2023/09/18 09:40:29;;;;;;;6.30;1.98;;;22.30;99.90;;;;;;4994235;28;20171;-47
2023/09/18 09:43:00;;;;;;;7.35;2.00;;;22.30;99.90;;;;;;4994392;28;20034;-49
2023/09/18 09:45:27;;;;;;;6.60;1.73;;;22.20;99.90;;;;;;4994064;28;20034;-52
2023/09/18 09:47:57;;;;;;;5.93;1.60;;;22.10;99.90;;;;;;4992857;28;20038;-52
2023/09/18 09:50:25;;;;;;;5.18;1.98;;;22.10;99.90;;;;;;4993781;28;20018;-50
2023/09/18 09:52:53;;;;;;;6.00;2.17;;;22.10;99.90;;;;;;4994304;28;20467;-50
2023/09/18 09:55:24;;;;;;;5.95;1.80;;;22.10;99.90;;;;;;4994265;28;20054;-48
2023/09/18 09:57:52;;;;;;;8.60;2.22;;;22.10;99.90;;;;;;4994725;28;20379;-48
2023/09/18 10:00:27;;;;;;;5.75;1.58;;;22.10;99.90;;;;;;4994239;28;20026;-48
2023/09/18 10:02:58;;;;;;;6.88;1.50;;;22.10;99.90;;;;;;4992996;28;20042;-48
2023/09/18 10:05:29;;;;;;;7.32;1.52;;;22.10;99.90;;;;;;4997699;28;20082;-49
2023/09/18 10:07:58;;;;;;;6.10;1.88;;;22.20;99.90;;;;;;4996514;28;20079;-53
2023/09/18 10:10:29;;;;;;;7.72;1.95;;;22.10;99.90;;;;;;4995147;28;20023;-49
2023/09/18 10:12:57;;;;;;;3.22;1.50;;;22.10;99.90;;;;;;4993582;28;20346;-52
2023/09/18 10:15:24;;;;;;;5.75;1.73;;;22.10;99.90;;;;;;4992068;28;20023;-48
2023/09/18 10:17:53;;;;;;;3.80;2.08;;;22.10;99.90;;;;;;4993392;28;20486;-52
2023/09/18 10:20:21;;;;;;;9.20;2.03;;;22.10;99.90;;;;;;4993453;28;20106;-49
2023/09/18 10:22:52;;;;;;;8.60;1.65;;;22.10;99.90;;;;;;4993375;28;20027;-48
2023/09/18 10:25:22;;;;;;;6.22;1.67;;;22.10;99.90;;;;;;4992934;28;20029;-48
2023/09/18 10:27:58;;;;;;;7.13;2.20;;;22.20;99.90;;;;;;4993193;28;20066;-49
2023/09/18 10:30:25;;;;;;;8.57;1.73;;;22.20;99.90;;;;;;4992976;28;20034;-47
2023/09/18 10:32:51;;;;;;;7.88;2.20;;;22.30;99.90;;;;;;4993008;28;20033;-53
2023/09/18 10:35:18;;;;;;;15.43;4.50;;;22.40;99.90;;;;;;4992664;28;20038;-52
2023/09/18 10:37:46;;;;;;;5.00;1.90;;;22.50;99.90;;;;;;4992984;28;20653;-48
2023/09/18 10:40:12;;;;;;;9.55;1.65;;;22.50;99.90;;;;;;4992957;28;20036;-51
2023/09/18 10:42:39;;;;;;;5.47;2.10;;;22.50;99.90;;;;;;4992653;28;20028;-48
2023/09/18 10:45:10;;;;;;;12.23;2.65;;;22.60;99.90;;;;;;4991319;28;20156;-49
2023/09/18 10:47:38;;;;;;;4.43;1.60;;;22.60;99.90;;;;;;4992913;28;20077;-49
2023/09/18 10:50:04;;;;;;;7.38;1.67;;;22.70;99.90;;;;;;4992604;28;20105;-53
2023/09/18 10:52:30;;;;;;;7.53;2.20;;;22.70;99.90;;;;;;4992423;28;20033;-50
2023/09/18 10:54:55;;;;;;;7.72;1.65;;;22.90;99.90;;;;;;4992132;28;20034;-52
2023/09/18 10:57:21;;;;;;;7.05;1.95;;;23.10;99.90;;;;;;4992193;28;20026;-48
2023/09/18 10:59:47;;;;;;;9.35;1.92;;;22.80;99.90;;;;;;4992340;28;20026;-49
2023/09/18 11:02:17;;;;;;;8.00;1.58;;;22.80;99.90;;;;;;4991078;28;20410;-50
2023/09/18 11:04:44;;;;;;;6.45;2.35;;;22.80;99.90;;;;;;4991917;28;20109;-50
2023/09/18 11:07:20;;;;;;;4.88;2.17;;;22.80;99.90;;;;;;4990772;28;20091;-50
2023/09/18 11:09:45;;;;;;;5.97;1.88;;;22.80;99.90;;;;;;4992392;28;20065;-50
2023/09/18 11:12:14;;;;;;;6.75;2.00;;;22.90;99.90;;;;;;4992140;28;20062;-48
2023/09/18 11:14:54;;;;;;;6.85;1.77;;;23.00;99.90;;;;;;4991037;28;20038;-51
2023/09/18 11:17:31;;;;;;;12.60;2.50;;;23.10;99.90;;;;;;4992246;28;20401;-48
2023/09/18 11:20:08;;;;;;;6.95;1.63;;;23.10;99.90;;;;;;4991889;28;20089;-51
2023/09/18 11:22:48;;;;;;;8.23;1.50;;;23.20;99.90;;;;;;4992002;28;20022;-52
2023/09/18 11:25:37;;;;;;;8.02;1.95;;;23.20;99.90;;;;;;4991431;28;20847;-48
2023/09/18 11:28:06;;;;;;;10.40;1.55;;;23.20;99.90;;;;;;4992118;28;20145;-48
2023/09/18 11:30:35;;;;;;;8.68;1.92;;;23.20;99.90;;;;;;4992229;28;20107;-48
2023/09/18 11:33:05;;;;;;;2.63;1.35;;;23.20;99.90;;;;;;4992224;28;20117;-47
2023/09/18 11:35:35;;;;;;;9.27;5.70;;;23.20;99.90;;;;;;4991899;28;20030;-46
2023/09/18 11:38:10;;;;;;;76.28;50.55;;;23.10;99.90;;;;;;4992170;28;20100;-48
2023/09/18 11:40:38;;;;;;;6.05;2.08;;;23.00;99.90;;;;;;4992127;28;20045;-52
2023/09/18 11:43:26;;;;;;;5.53;1.70;;;23.10;99.90;;;;;;4992258;28;20113;-50
2023/09/18 11:45:54;;;;;;;6.72;2.05;;;23.20;99.90;;;;;;4991680;28;20022;-51
2023/09/18 11:48:20;;;;;;;3.55;1.40;;;23.30;99.90;;;;;;4991982;28;20046;-51
2023/09/18 11:50:50;;;;;;;6.60;1.95;;;23.30;99.90;;;;;;4992006;28;20405;-48
2023/09/18 11:53:18;;;;;;;7.65;2.03;;;23.30;99.90;;;;;;4991914;28;20490;-51
2023/09/18 11:55:43;;;;;;;6.10;1.85;;;23.30;99.90;;;;;;4991634;28;20032;-50
2023/09/18 11:58:09;;;;;;;8.85;2.45;;;23.30;99.90;;;;;;4992190;28;20405;-50
2023/09/18 12:00:35;;;;;;;7.35;1.90;;;23.30;99.90;;;;;;4991790;28;20036;-48
2023/09/18 12:03:27;;;;;;;9.18;2.47;;;23.40;99.90;;;;;;4990590;28;20023;-47
2023/09/18 12:06:01;;;;;;;9.57;1.98;;;23.40;99.90;;;;;;4991610;28;20027;-45
2023/09/18 12:08:31;;;;;;;6.15;1.58;;;23.30;99.90;;;;;;4990701;28;20027;-48
2023/09/18 12:10:58;;;;;;;9.75;1.67;;;23.20;99.90;;;;;;4991543;28;20394;-51
2023/09/18 12:13:29;;;;;;;6.63;1.95;;;23.10;99.90;;;;;;4992583;28;20168;-46
2023/09/18 12:16:00;;;;;;;4.20;1.63;;;23.10;99.90;;;;;;4994223;28;20038;-49
2023/09/18 12:18:28;;;;;;;6.38;1.63;;;23.00;99.90;;;;;;4994421;28;20038;-52
2023/09/18 12:20:55;;;;;;;10.07;2.97;;;22.90;99.90;;;;;;4995213;28;20026;-47
2023/09/18 12:23:22;;;;;;;2.83;1.52;;;22.80;99.90;;;;;;4994871;28;20027;-47
2023/09/18 12:25:49;;;;;;;6.38;2.20;;;22.90;99.90;;;;;;4995168;28;20026;-48
2023/09/18 12:28:15;;;;;;;9.38;2.20;;;22.90;99.90;;;;;;4991690;28;20464;-48
2023/09/18 12:30:42;;;;;;;5.60;1.75;;;23.00;99.90;;;;;;4993097;28;20035;-49
2023/09/18 12:33:07;;;;;;;7.68;1.85;;;23.20;99.90;;;;;;4994066;28;20026;-50
2023/09/18 12:35:33;;;;;;;7.97;3.38;;;23.30;99.90;;;;;;4994561;28;20087;-51
2023/09/18 12:38:00;;;;;;;5.63;1.60;;;23.50;99.90;;;;;;4995254;28;20032;-50
2023/09/18 12:40:27;;;;;;;5.15;2.03;;;23.50;99.90;;;;;;4995311;28;20030;-51